createdAt,value
2022-07-30T00:01:45.273Z,16.70
2022-07-30T00:06:39.941Z,16.70
2022-07-30T00:09:06.743Z,19.60
2022-07-30T00:14:00.800Z,16.60
2022-07-30T00:16:27.859Z,16.60
2022-07-30T00:21:35.867Z,16.60
2022-07-30T00:24:05.611Z,16.50
2022-07-30T00:26:32.406Z,16.50
2022-07-30T00:36:20.485Z,16.30
2022-07-30T00:41:15.509Z,16.20
2022-07-30T00:43:42.705Z,16.10
2022-07-30T00:46:09.480Z,15.30
2022-07-30T00:48:36.448Z,16.10
2022-07-30T00:55:57.900Z,16.00
2022-07-30T00:58:24.715Z,16.50
2022-07-30T01:03:18.709Z,16.10
2022-07-30T01:10:39.662Z,15.90
2022-07-30T01:13:06.432Z,15.90
2022-07-30T01:18:02.846Z,15.90
2022-07-30T01:20:36.060Z,15.80
2022-07-30T01:23:25.247Z,15.80
2022-07-30T01:25:58.867Z,15.80
2022-07-30T01:28:30.668Z,15.80
2022-07-30T01:30:57.743Z,15.90
2022-07-30T01:33:24.679Z,15.80
2022-07-30T01:38:21.963Z,15.80
2022-07-30T01:45:44.534Z,15.70
2022-07-30T01:48:11.916Z,15.70
2022-07-30T01:53:06.037Z,15.60
2022-07-30T01:55:36.882Z,15.60
2022-07-30T01:58:06.756Z,15.70
2022-07-30T02:00:34.874Z,15.60
2022-07-30T02:03:01.643Z,15.60
2022-07-30T02:10:53.315Z,15.70
2022-07-30T02:13:24.894Z,15.70
2022-07-30T02:16:09.279Z,15.60
2022-07-30T02:18:57.057Z,13.20
2022-07-30T02:21:25.388Z,15.70
2022-07-30T02:26:30.106Z,15.70
2022-07-30T02:31:25.883Z,15.70
2022-07-30T02:33:54.901Z,15.70
2022-07-30T02:36:21.637Z,15.70
2022-07-30T02:43:45.010Z,15.70
2022-07-30T02:48:39.205Z,15.70
2022-07-30T02:51:05.928Z,15.80
2022-07-30T02:55:59.916Z,15.80
2022-07-30T03:03:21.302Z,15.80
2022-07-30T03:05:50.061Z,15.90
2022-07-30T03:08:19.231Z,15.80
2022-07-30T03:10:46.752Z,15.80
2022-07-30T03:15:46.052Z,15.80
2022-07-30T03:18:13.772Z,15.80
2022-07-30T03:23:07.757Z,15.80
2022-07-30T03:28:02.844Z,15.70
2022-07-30T03:30:29.814Z,15.60
2022-07-30T03:35:25.022Z,15.60
2022-07-30T03:42:47.900Z,15.80
2022-07-30T03:45:14.716Z,15.80
2022-07-30T03:50:12.312Z,15.80
2022-07-30T03:52:41.029Z,15.80
2022-07-30T03:55:09.424Z,15.80
2022-07-30T04:00:08.660Z,15.80
2022-07-30T04:02:45.423Z,15.80
2022-07-30T04:05:13.420Z,15.80
2022-07-30T04:07:41.450Z,15.80
2022-07-30T04:10:12.591Z,15.80
2022-07-30T04:17:56.154Z,15.90
2022-07-30T04:20:25.873Z,16.00
2022-07-30T04:22:52.772Z,16.00
2022-07-30T04:25:24.395Z,16.10
2022-07-30T04:28:03.078Z,16.10
2022-07-30T04:32:57.976Z,16.20
2022-07-30T04:35:51.272Z,16.30
2022-07-30T04:38:18.597Z,16.40
2022-07-30T04:40:45.908Z,16.40
2022-07-30T04:43:12.653Z,16.60
2022-07-30T04:45:39.996Z,16.70
2022-07-30T04:48:07.193Z,17.00
2022-07-30T04:50:35.043Z,16.90
2022-07-30T04:57:56.542Z,17.20
2022-07-30T05:00:23.227Z,16.90
2022-07-30T05:02:49.955Z,16.80
2022-07-30T05:05:17.586Z,16.70
2022-07-30T05:07:44.602Z,16.60
2022-07-30T05:10:12.095Z,16.60
2022-07-30T05:12:39.067Z,16.50
2022-07-30T05:15:09.744Z,16.70
2022-07-30T05:17:36.756Z,16.80
2022-07-30T05:24:58.472Z,16.90
2022-07-30T05:27:25.249Z,16.90
2022-07-30T05:29:52.028Z,16.80
2022-07-30T05:32:22.729Z,16.80
2022-07-30T05:34:52.499Z,16.80
2022-07-30T05:37:19.166Z,16.70
2022-07-30T05:40:02.307Z,16.60
2022-07-30T05:47:24.739Z,16.90
2022-07-30T05:49:51.454Z,17.30
2022-07-30T05:52:18.138Z,17.90
2022-07-30T05:54:45.573Z,17.70
2022-07-30T05:57:12.258Z,17.70
2022-07-30T05:59:39.081Z,17.80
2022-07-30T06:07:02.776Z,18.20
2022-07-30T06:12:04.545Z,18.30
2022-07-30T06:14:32.331Z,18.60
2022-07-30T06:16:59.526Z,18.60
2022-07-30T06:19:26.562Z,18.70
2022-07-30T06:22:05.270Z,18.50
2022-07-30T06:24:33.188Z,18.70
2022-07-30T06:29:27.612Z,18.70
2022-07-30T06:31:54.345Z,18.80
2022-07-30T06:36:48.580Z,19.20
2022-07-30T06:39:15.402Z,19.40
2022-07-30T06:42:02.123Z,19.50
2022-07-30T06:44:28.880Z,19.50
2022-07-30T06:46:55.628Z,19.60
2022-07-30T06:49:22.887Z,19.50
2022-07-30T06:51:49.693Z,19.70
2022-07-30T06:54:16.377Z,20.50
2022-07-30T06:56:43.336Z,19.60
2022-07-30T07:01:37.731Z,20.00
2022-07-30T07:04:04.849Z,19.70
2022-07-30T07:06:31.573Z,19.90
2022-07-30T07:08:58.352Z,20.10
2022-07-30T07:11:25.247Z,20.40
2022-07-30T07:13:51.939Z,20.60
2022-07-30T07:16:24.942Z,20.20
2022-07-30T07:18:52.623Z,19.90
2022-07-30T07:21:19.750Z,19.80
2022-07-30T07:26:15.643Z,20.50
2022-07-30T07:28:42.476Z,20.70
2022-07-30T07:31:09.839Z,20.50
2022-07-30T07:33:37.162Z,20.70
2022-07-30T07:38:31.256Z,21.20
2022-07-30T07:40:57.964Z,21.00
2022-07-30T07:43:25.284Z,20.70
2022-07-30T07:45:52.128Z,20.80
2022-07-30T07:48:19.353Z,21.10
2022-07-30T07:50:46.084Z,21.10
2022-07-30T07:53:13.000Z,21.10
2022-07-30T07:55:40.128Z,21.20
2022-07-30T07:58:06.926Z,21.50
2022-07-30T08:00:34.109Z,21.00
2022-07-30T08:03:00.829Z,21.30
2022-07-30T08:05:59.071Z,21.40
2022-07-30T08:08:14.688Z,21.30
2022-07-30T08:13:48.627Z,21.50
2022-07-30T08:15:55.404Z,21.50
2022-07-30T08:18:22.104Z,21.50
2022-07-30T08:20:50.070Z,21.90
2022-07-30T08:28:36.194Z,22.00
2022-07-30T08:31:00.628Z,22.40
2022-07-30T08:33:29.225Z,22.40
2022-07-30T08:36:02.974Z,22.40
2022-07-30T08:38:31.239Z,22.30
2022-07-30T08:40:58.286Z,22.20
2022-07-30T08:43:25.692Z,22.10
2022-07-30T08:48:21.147Z,22.60
2022-07-30T08:50:47.850Z,22.80
2022-07-30T08:53:14.563Z,23.20
2022-07-30T08:55:41.571Z,23.00
2022-07-30T08:58:33.633Z,22.70
2022-07-30T09:01:00.432Z,23.00
2022-07-30T09:03:27.169Z,22.90
2022-07-30T09:05:53.961Z,22.80
2022-07-30T09:08:20.687Z,22.70
2022-07-30T09:10:52.796Z,22.90
2022-07-30T09:13:31.042Z,22.70
2022-07-30T09:15:58.006Z,22.90
2022-07-30T09:18:31.531Z,22.80
2022-07-30T09:21:24.472Z,22.70
2022-07-30T09:24:02.003Z,22.30
2022-07-30T09:26:35.064Z,22.80
2022-07-30T09:29:25.393Z,22.90
2022-07-30T09:32:02.931Z,23.00
2022-07-30T09:34:36.977Z,23.20
2022-07-30T09:37:09.744Z,23.20
2022-07-30T09:39:40.641Z,23.50
2022-07-30T09:42:26.591Z,23.30
2022-07-30T09:45:04.971Z,23.40
2022-07-30T09:47:37.228Z,23.10
2022-07-30T09:50:07.894Z,23.60
2022-07-30T09:52:34.804Z,23.60
2022-07-30T09:55:01.559Z,24.20
2022-07-30T09:57:30.336Z,24.10
2022-07-30T09:59:57.697Z,23.50
2022-07-30T10:02:33.561Z,24.00
2022-07-30T10:05:15.091Z,23.70
2022-07-30T10:07:55.779Z,23.80
2022-07-30T10:10:28.317Z,23.80
2022-07-30T10:12:58.380Z,24.10
2022-07-30T10:15:28.108Z,24.40
2022-07-30T10:17:55.240Z,24.20
2022-07-30T10:20:22.769Z,24.00
2022-07-30T10:22:51.510Z,23.80
2022-07-30T10:25:27.884Z,24.30
2022-07-30T10:27:57.987Z,24.30
2022-07-30T10:30:27.750Z,24.30
2022-07-30T10:32:56.703Z,24.60
2022-07-30T10:35:34.392Z,24.70
2022-07-30T10:38:06.726Z,25.20
2022-07-30T10:40:35.524Z,24.90
2022-07-30T10:43:35.430Z,24.70
2022-07-30T10:46:35.018Z,24.40
2022-07-30T10:49:18.814Z,24.50
2022-07-30T10:51:50.294Z,25.10
2022-07-30T10:54:36.596Z,24.70
2022-07-30T10:57:26.569Z,26.00
2022-07-30T11:00:00.016Z,24.80
2022-07-30T11:02:31.398Z,25.70
2022-07-30T11:05:43.847Z,25.60
2022-07-30T11:08:43.457Z,25.30
2022-07-30T11:11:59.585Z,25.10
2022-07-30T11:14:09.345Z,24.90
2022-07-30T11:16:37.146Z,25.20
2022-07-30T11:19:54.905Z,25.60
2022-07-30T11:22:28.235Z,25.40
2022-07-30T11:24:56.607Z,24.90
2022-07-30T11:27:45.470Z,25.10
2022-07-30T11:30:17.085Z,24.90
2022-07-30T11:32:51.428Z,25.40
2022-07-30T11:35:25.275Z,25.40
2022-07-30T11:38:18.687Z,25.20
2022-07-30T11:40:45.873Z,25.20
2022-07-30T11:43:35.175Z,25.40
2022-07-30T11:46:10.513Z,25.40
2022-07-30T11:48:39.029Z,25.40
2022-07-30T11:51:05.864Z,25.50
2022-07-30T11:53:32.558Z,25.60
2022-07-30T11:56:01.870Z,25.70
2022-07-30T11:58:33.387Z,25.60
2022-07-30T12:01:09.184Z,25.30
2022-07-30T12:03:40.008Z,25.10
2022-07-30T12:06:18.295Z,25.10
2022-07-30T12:08:49.419Z,25.30
2022-07-30T12:11:16.169Z,25.50
2022-07-30T12:13:46.343Z,25.20
2022-07-30T12:16:16.572Z,25.60
2022-07-30T12:18:44.010Z,25.40
2022-07-30T12:21:12.606Z,24.90
2022-07-30T12:23:39.477Z,24.60
2022-07-30T12:26:06.162Z,25.00
2022-07-30T12:28:33.907Z,25.80
2022-07-30T12:31:04.089Z,25.80
2022-07-30T12:33:30.864Z,25.90
2022-07-30T12:35:58.943Z,26.20
2022-07-30T12:38:27.156Z,26.20
2022-07-30T12:41:00.803Z,26.30
2022-07-30T12:43:50.039Z,26.00
2022-07-30T12:46:24.457Z,25.20
2022-07-30T12:49:21.199Z,25.10
2022-07-30T12:51:59.580Z,24.70
2022-07-30T12:54:27.469Z,25.90
2022-07-30T12:57:02.923Z,25.70
2022-07-30T12:59:31.105Z,25.50
2022-07-30T13:02:00.228Z,25.30
2022-07-30T13:04:27.382Z,25.20
2022-07-30T13:07:08.164Z,25.80
2022-07-30T13:09:34.989Z,25.90
2022-07-30T13:12:01.720Z,26.10
2022-07-30T13:14:28.454Z,26.30
2022-07-30T13:16:58.880Z,26.70
2022-07-30T13:19:26.239Z,26.50
2022-07-30T13:21:52.981Z,26.30
2022-07-30T13:24:19.727Z,26.40
2022-07-30T13:26:46.670Z,26.60
2022-07-30T13:29:13.684Z,26.50
2022-07-30T13:34:11.072Z,26.10
2022-07-30T13:36:37.808Z,25.70
2022-07-30T13:39:04.603Z,25.60
2022-07-30T13:41:31.329Z,25.70
2022-07-30T13:46:25.277Z,26.60
2022-07-30T13:51:19.171Z,26.40
2022-07-30T13:53:45.982Z,26.60
2022-07-30T13:56:13.192Z,26.60
2022-07-30T13:58:40.434Z,26.70
2022-07-30T14:01:07.497Z,27.20
2022-07-30T14:03:35.281Z,27.00
2022-07-30T14:06:10.800Z,27.30
2022-07-30T14:08:38.218Z,27.30
2022-07-30T14:11:04.931Z,26.60
2022-07-30T14:13:31.628Z,26.20
2022-07-30T14:15:58.432Z,26.00
2022-07-30T14:18:25.182Z,25.50
2022-07-30T14:20:53.790Z,25.50
2022-07-30T14:23:20.697Z,25.50
2022-07-30T14:25:47.529Z,26.00
2022-07-30T14:28:14.314Z,26.40
2022-07-30T14:30:41.408Z,26.10
2022-07-30T14:33:08.311Z,26.10
2022-07-30T14:35:35.045Z,26.80
2022-07-30T14:38:03.449Z,27.10
2022-07-30T14:40:30.194Z,26.30
2022-07-30T14:42:56.934Z,26.10
2022-07-30T14:45:25.554Z,26.50
2022-07-30T14:47:52.361Z,26.70
2022-07-30T14:50:22.216Z,25.90
2022-07-30T14:55:16.189Z,26.20
2022-07-30T14:57:43.557Z,26.60
2022-07-30T15:00:11.848Z,26.30
2022-07-30T15:02:38.860Z,27.00
2022-07-30T15:05:06.124Z,27.00
2022-07-30T15:07:35.966Z,27.00
2022-07-30T15:10:03.198Z,27.20
2022-07-30T15:12:30.077Z,26.70
2022-07-30T15:14:58.056Z,26.10
2022-07-30T15:17:24.838Z,25.90
2022-07-30T15:19:51.712Z,26.20
2022-07-30T15:22:21.343Z,26.40
2022-07-30T15:24:48.828Z,26.60
2022-07-30T15:27:15.629Z,26.70
2022-07-30T15:29:42.313Z,26.50
2022-07-30T15:32:09.037Z,26.40
2022-07-30T15:34:35.760Z,26.80
2022-07-30T15:37:02.826Z,26.90
2022-07-30T15:41:59.988Z,27.10
2022-07-30T15:44:27.032Z,27.20
2022-07-30T15:46:53.811Z,28.10
2022-07-30T15:49:20.659Z,27.50
2022-07-30T15:51:50.429Z,27.60
2022-07-30T15:54:22.111Z,27.40
2022-07-30T15:59:17.587Z,27.00
2022-07-30T16:01:44.601Z,27.00
2022-07-30T16:06:49.700Z,27.10
2022-07-30T16:09:16.696Z,26.60
2022-07-30T16:11:43.424Z,26.40
2022-07-30T16:14:10.525Z,26.40
2022-07-30T16:16:37.428Z,26.40
2022-07-30T16:19:04.410Z,26.50
2022-07-30T16:21:31.126Z,26.70
2022-07-30T16:23:57.900Z,26.80
2022-07-30T16:26:24.579Z,26.70
2022-07-30T16:28:51.271Z,28.20
2022-07-30T16:31:17.993Z,26.70
2022-07-30T16:33:44.969Z,26.40
2022-07-30T16:36:11.651Z,26.50
2022-07-30T16:38:38.344Z,26.80
2022-07-30T16:41:05.006Z,26.90
2022-07-30T16:43:32.073Z,26.70
2022-07-30T16:45:59.562Z,27.00
2022-07-30T16:48:26.605Z,26.80
2022-07-30T16:50:53.418Z,26.30
2022-07-30T16:53:20.142Z,26.20
2022-07-30T16:55:46.886Z,26.40
2022-07-30T16:58:13.632Z,26.30
2022-07-30T17:00:40.569Z,26.50
2022-07-30T17:03:07.329Z,26.40
2022-07-30T17:05:34.282Z,26.10
2022-07-30T17:08:00.994Z,25.80
2022-07-30T17:10:27.873Z,25.70
2022-07-30T17:12:56.892Z,25.60
2022-07-30T17:15:32.123Z,25.50
2022-07-30T17:18:00.168Z,25.50
2022-07-30T17:20:26.911Z,25.40
2022-07-30T17:22:55.332Z,25.30
2022-07-30T17:25:27.404Z,24.80
2022-07-30T17:27:55.411Z,24.40
2022-07-30T17:30:23.319Z,24.40
2022-07-30T17:32:50.597Z,25.30
2022-07-30T17:35:17.303Z,24.20
2022-07-30T17:37:44.046Z,24.00
2022-07-30T17:40:28.341Z,23.80
2022-07-30T17:43:03.346Z,23.60
2022-07-30T17:47:58.064Z,23.20
2022-07-30T17:50:25.059Z,23.10
2022-07-30T17:52:51.747Z,22.90
2022-07-30T17:55:18.420Z,22.90
2022-07-30T17:57:45.120Z,22.80
2022-07-30T18:00:12.267Z,22.70
2022-07-30T18:02:39.119Z,25.90
2022-07-30T18:05:06.089Z,22.70
2022-07-30T18:10:00.034Z,22.60
2022-07-30T18:12:26.710Z,22.50
2022-07-30T18:17:22.271Z,22.30
2022-07-30T18:22:17.225Z,22.10
2022-07-30T18:29:50.182Z,21.90
2022-07-30T18:32:16.895Z,21.90
2022-07-30T18:34:43.970Z,21.80
2022-07-30T18:37:10.639Z,21.80
2022-07-30T18:39:37.340Z,21.70
2022-07-30T18:42:04.614Z,21.80
2022-07-30T18:49:41.373Z,21.70
2022-07-30T18:57:03.298Z,21.60
2022-07-30T18:59:30.635Z,21.70
2022-07-30T19:04:24.480Z,21.60
2022-07-30T19:06:51.241Z,21.50
2022-07-30T19:09:18.293Z,21.40
2022-07-30T19:11:46.065Z,21.30
2022-07-30T19:14:13.989Z,21.30
2022-07-30T19:19:08.739Z,21.20
2022-07-30T19:21:35.582Z,21.10
2022-07-30T19:24:02.407Z,21.00
2022-07-30T19:26:29.204Z,22.80
2022-07-30T19:28:55.875Z,20.90
2022-07-30T19:31:22.579Z,20.80
2022-07-30T19:33:49.535Z,20.70
2022-07-30T19:36:20.566Z,20.70
2022-07-30T19:41:15.826Z,20.70
2022-07-30T19:43:42.486Z,20.70
2022-07-30T19:53:42.605Z,20.40
2022-07-30T19:56:12.690Z,20.40
2022-07-30T19:58:41.223Z,20.20
2022-07-30T20:06:27.966Z,20.10
2022-07-30T20:08:55.970Z,20.00
2022-07-30T20:11:35.834Z,20.10
2022-07-30T20:14:03.893Z,19.90
2022-07-30T20:16:30.930Z,15.70
2022-07-30T20:18:57.739Z,19.90
2022-07-30T20:24:14.790Z,19.80
2022-07-30T20:26:42.146Z,19.80
2022-07-30T20:29:18.930Z,19.70
2022-07-30T20:31:46.623Z,19.70
2022-07-30T20:36:44.956Z,19.50
2022-07-30T20:41:45.203Z,19.30
2022-07-30T20:44:14.976Z,19.20
2022-07-30T20:46:50.657Z,19.10
2022-07-30T20:49:23.662Z,19.10
2022-07-30T20:54:29.756Z,18.90
2022-07-30T21:04:25.621Z,18.70
2022-07-30T21:06:52.859Z,17.90
2022-07-30T21:09:19.970Z,18.60
2022-07-30T21:11:50.308Z,18.50
2022-07-30T21:19:16.449Z,18.40
2022-07-30T21:21:48.333Z,18.40
2022-07-30T21:24:18.710Z,18.20
2022-07-30T21:26:48.565Z,18.20
2022-07-30T21:32:00.472Z,18.10
2022-07-30T21:34:33.655Z,18.10
2022-07-30T21:37:02.798Z,17.90
2022-07-30T21:39:30.160Z,17.90
2022-07-30T21:41:57.278Z,17.90
2022-07-30T21:44:24.151Z,17.90
2022-07-30T21:54:19.334Z,17.70
2022-07-30T21:56:56.314Z,17.70
2022-07-30T21:59:24.848Z,17.70
2022-07-30T22:01:55.234Z,17.70
2022-07-30T22:06:49.229Z,17.70
2022-07-30T22:09:19.307Z,20.80
2022-07-30T22:17:58.724Z,17.60
2022-07-30T22:20:25.247Z,17.50
2022-07-30T22:22:54.412Z,17.40
2022-07-30T22:27:55.899Z,17.30
2022-07-30T22:32:53.933Z,17.20
2022-07-30T22:38:02.225Z,17.10
2022-07-30T22:40:29.556Z,16.70
2022-07-30T22:42:56.654Z,16.90
2022-07-30T22:48:11.634Z,17.10
2022-07-30T22:53:23.550Z,17.00
2022-07-30T22:55:54.704Z,17.00
2022-07-30T23:06:04.861Z,16.80
2022-07-30T23:11:00.929Z,16.70
2022-07-30T23:12:17.092Z,20.20
2022-07-30T23:12:28.379Z,17.60
2022-07-30T23:12:30.812Z,16.90
2022-07-30T23:12:31.356Z,17.70
2022-07-30T23:15:55.644Z,16.80
2022-07-30T23:18:22.578Z,16.70
2022-07-30T23:20:49.423Z,16.60
2022-07-30T23:23:16.159Z,16.60
2022-07-30T23:25:42.835Z,16.60
2022-07-30T23:28:09.539Z,16.60
2022-07-30T23:30:36.233Z,16.50
2022-07-30T23:35:30.360Z,16.50
2022-07-30T23:42:52.640Z,16.30
2022-07-30T23:45:19.505Z,16.20
2022-07-30T23:47:52.881Z,16.20
2022-07-30T23:50:33.408Z,16.10
2022-07-30T23:53:00.955Z,16.10
2022-07-30T23:55:28.147Z,16.00
